sensor_id;sensor_type;location;lat;lon;timestamp;temperature;humidity
34099;DHT22;20374;49.474;10.944;2023-11-21T00:04:30;6.90;99.90
34099;DHT22;20374;49.474;10.944;2023-11-21T00:07:15;7.00;99.90
34099;DHT22;20374;49.474;10.944;2023-11-21T00:09:48;7.10;99.90
34099;DHT22;20374;49.474;10.944;2023-11-21T00:12:24;7.00;99.90
34099;DHT22;20374;49.474;10.944;2023-11-21T00:14:50;7.10;99.90
34099;DHT22;20374;49.474;10.944;2023-11-21T00:17:19;7.10;99.90
34099;DHT22;20374;49.474;10.944;2023-11-21T00:19:49;7.10;99.90
34099;DHT22;20374;49.474;10.944;2023-11-21T00:22:15;7.10;99.90
34099;DHT22;20374;49.474;10.944;2023-11-21T00:24:42;7.10;99.90
34099;DHT22;20374;49.474;10.944;2023-11-21T00:27:12;7.10;99.90
34099;DHT22;20374;49.474;10.944;2023-11-21T00:29:38;7.20;99.90
34099;DHT22;20374;49.474;10.944;2023-11-21T00:32:12;7.10;99.90
34099;DHT22;20374;49.474;10.944;2023-11-21T00:34:38;7.10;99.90
34099;DHT22;20374;49.474;10.944;2023-11-21T00:37:05;7.10;99.90
34099;DHT22;20374;49.474;10.944;2023-11-21T00:39:42;7.00;99.90
34099;DHT22;20374;49.474;10.944;2023-11-21T00:42:09;7.00;99.90
34099;DHT22;20374;49.474;10.944;2023-11-21T00:44:43;7.00;99.90
34099;DHT22;20374;49.474;10.944;2023-11-21T00:47:09;7.10;99.90
34099;DHT22;20374;49.474;10.944;2023-11-21T00:50:04;7.10;99.90
34099;DHT22;20374;49.474;10.944;2023-11-21T00:52:39;7.10;99.90
34099;DHT22;20374;49.474;10.944;2023-11-21T00:55:15;7.10;99.90
34099;DHT22;20374;49.474;10.944;2023-11-21T00:57:51;7.00;99.90
34099;DHT22;20374;49.474;10.944;2023-11-21T01:00:18;7.00;99.90
34099;DHT22;20374;49.474;10.944;2023-11-21T01:02:44;7.10;99.90
34099;DHT22;20374;49.474;10.944;2023-11-21T01:05:20;7.10;99.90
34099;DHT22;20374;49.474;10.944;2023-11-21T01:07:52;7.00;99.90
34099;DHT22;20374;49.474;10.944;2023-11-21T01:10:19;7.10;99.90
34099;DHT22;20374;49.474;10.944;2023-11-21T01:13:00;7.10;99.90
34099;DHT22;20374;49.474;10.944;2023-11-21T01:15:27;7.10;99.90
34099;DHT22;20374;49.474;10.944;2023-11-21T01:18:39;7.10;99.90
34099;DHT22;20374;49.474;10.944;2023-11-21T01:21:32;7.10;99.90
34099;DHT22;20374;49.474;10.944;2023-11-21T01:24:16;7.10;99.90
34099;DHT22;20374;49.474;10.944;2023-11-21T01:27:13;7.10;99.90
34099;DHT22;20374;49.474;10.944;2023-11-21T01:29:55;7.00;99.90
34099;DHT22;20374;49.474;10.944;2023-11-21T01:32:53;7.10;99.90
34099;DHT22;20374;49.474;10.944;2023-11-21T01:35:39;7.00;99.90
34099;DHT22;20374;49.474;10.944;2023-11-21T01:38:15;7.00;99.90
34099;DHT22;20374;49.474;10.944;2023-11-21T01:47:44;7.00;99.90
34099;DHT22;20374;49.474;10.944;2023-11-21T01:50:19;7.00;99.90
34099;DHT22;20374;49.474;10.944;2023-11-21T01:53:19;7.00;99.90
34099;DHT22;20374;49.474;10.944;2023-11-21T01:55:50;7.00;99.90
34099;DHT22;20374;49.474;10.944;2023-11-21T02:05:18;7.00;99.90
34099;DHT22;20374;49.474;10.944;2023-11-21T02:08:17;7.00;99.90
34099;DHT22;20374;49.474;10.944;2023-11-21T02:11:07;7.00;99.90
34099;DHT22;20374;49.474;10.944;2023-11-21T02:14:30;7.10;99.90
34099;DHT22;20374;49.474;10.944;2023-11-21T02:17:12;7.00;99.90
34099;DHT22;20374;49.474;10.944;2023-11-21T02:19:56;7.00;99.90
34099;DHT22;20374;49.474;10.944;2023-11-21T02:22:31;7.00;99.90
34099;DHT22;20374;49.474;10.944;2023-11-21T02:29:19;7.00;99.90
34099;DHT22;20374;49.474;10.944;2023-11-21T02:36:16;6.90;99.90
34099;DHT22;20374;49.474;10.944;2023-11-21T02:39:23;6.90;99.90
34099;DHT22;20374;49.474;10.944;2023-11-21T02:42:13;6.90;99.90
34099;DHT22;20374;49.474;10.944;2023-11-21T02:45:26;7.00;99.90
34099;DHT22;20374;49.474;10.944;2023-11-21T02:48:17;7.00;99.90
34099;DHT22;20374;49.474;10.944;2023-11-21T02:51:04;6.90;99.90
34099;DHT22;20374;49.474;10.944;2023-11-21T02:53:31;7.00;99.90
34099;DHT22;20374;49.474;10.944;2023-11-21T02:56:26;6.90;99.90
34099;DHT22;20374;49.474;10.944;2023-11-21T02:58:56;6.90;99.90
34099;DHT22;20374;49.474;10.944;2023-11-21T03:01:22;6.90;99.90
34099;DHT22;20374;49.474;10.944;2023-11-21T03:03:50;6.90;99.90
34099;DHT22;20374;49.474;10.944;2023-11-21T03:06:47;6.90;99.90
34099;DHT22;20374;49.474;10.944;2023-11-21T03:09:14;6.90;99.90
34099;DHT22;20374;49.474;10.944;2023-11-21T03:11:45;6.90;99.90
34099;DHT22;20374;49.474;10.944;2023-11-21T03:14:19;6.90;99.90
34099;DHT22;20374;49.474;10.944;2023-11-21T03:16:45;6.80;99.90
34099;DHT22;20374;49.474;10.944;2023-11-21T03:19:12;6.80;99.90
34099;DHT22;20374;49.474;10.944;2023-11-21T03:21:38;6.70;99.90
34099;DHT22;20374;49.474;10.944;2023-11-21T03:24:34;6.90;99.90
34099;DHT22;20374;49.474;10.944;2023-11-21T03:27:21;6.90;99.90
34099;DHT22;20374;49.474;10.944;2023-11-21T03:29:56;6.90;99.90
34099;DHT22;20374;49.474;10.944;2023-11-21T03:32:22;6.90;99.90
34099;DHT22;20374;49.474;10.944;2023-11-21T03:34:56;6.80;99.90
34099;DHT22;20374;49.474;10.944;2023-11-21T03:37:31;6.90;99.90
34099;DHT22;20374;49.474;10.944;2023-11-21T03:40:07;6.80;99.90
34099;DHT22;20374;49.474;10.944;2023-11-21T03:42:35;7.00;99.90
34099;DHT22;20374;49.474;10.944;2023-11-21T03:45:07;6.80;99.90
34099;DHT22;20374;49.474;10.944;2023-11-21T03:47:41;6.80;99.90
34099;DHT22;20374;49.474;10.944;2023-11-21T03:50:18;6.80;99.90
34099;DHT22;20374;49.474;10.944;2023-11-21T03:52:47;6.70;99.90
34099;DHT22;20374;49.474;10.944;2023-11-21T03:55:14;6.70;99.90
34099;DHT22;20374;49.474;10.944;2023-11-21T03:57:42;6.70;99.90
34099;DHT22;20374;49.474;10.944;2023-11-21T04:00:14;6.70;99.90
34099;DHT22;20374;49.474;10.944;2023-11-21T04:02:49;6.70;99.90
34099;DHT22;20374;49.474;10.944;2023-11-21T04:05:46;6.70;99.90
34099;DHT22;20374;49.474;10.944;2023-11-21T04:08:19;6.70;99.90
34099;DHT22;20374;49.474;10.944;2023-11-21T04:11:03;6.70;99.90
34099;DHT22;20374;49.474;10.944;2023-11-21T04:13:50;6.80;99.90
34099;DHT22;20374;49.474;10.944;2023-11-21T04:16:32;6.80;99.90
34099;DHT22;20374;49.474;10.944;2023-11-21T04:18:59;6.80;99.90
34099;DHT22;20374;49.474;10.944;2023-11-21T04:21:35;6.70;99.90
34099;DHT22;20374;49.474;10.944;2023-11-21T04:24:01;6.80;99.90
34099;DHT22;20374;49.474;10.944;2023-11-21T04:26:30;6.80;99.90
34099;DHT22;20374;49.474;10.944;2023-11-21T04:29:06;6.80;99.90
34099;DHT22;20374;49.474;10.944;2023-11-21T04:31:33;6.80;99.90
34099;DHT22;20374;49.474;10.944;2023-11-21T04:33:59;6.80;99.90
34099;DHT22;20374;49.474;10.944;2023-11-21T04:39:36;6.80;99.90
34099;DHT22;20374;49.474;10.944;2023-11-21T04:42:03;6.80;99.90
34099;DHT22;20374;49.474;10.944;2023-11-21T04:44:36;6.70;99.90
34099;DHT22;20374;49.474;10.944;2023-11-21T04:47:03;6.70;99.90
34099;DHT22;20374;49.474;10.944;2023-11-21T04:49:30;6.80;99.90
34099;DHT22;20374;49.474;10.944;2023-11-21T04:51:57;6.80;99.90
34099;DHT22;20374;49.474;10.944;2023-11-21T04:54:23;6.80;99.90
34099;DHT22;20374;49.474;10.944;2023-11-21T04:56:49;6.70;99.90
34099;DHT22;20374;49.474;10.944;2023-11-21T04:59:16;6.80;99.90
34099;DHT22;20374;49.474;10.944;2023-11-21T05:01:42;6.80;99.90
34099;DHT22;20374;49.474;10.944;2023-11-21T05:04:08;6.80;99.90
34099;DHT22;20374;49.474;10.944;2023-11-21T05:06:34;6.80;99.90
34099;DHT22;20374;49.474;10.944;2023-11-21T05:09:04;6.80;99.90
34099;DHT22;20374;49.474;10.944;2023-11-21T05:11:30;6.80;99.90
34099;DHT22;20374;49.474;10.944;2023-11-21T05:13:56;6.80;99.90
34099;DHT22;20374;49.474;10.944;2023-11-21T05:16:26;6.80;99.90
34099;DHT22;20374;49.474;10.944;2023-11-21T05:18:53;6.90;99.90
34099;DHT22;20374;49.474;10.944;2023-11-21T05:21:27;6.90;99.90
34099;DHT22;20374;49.474;10.944;2023-11-21T05:23:55;6.90;99.90
34099;DHT22;20374;49.474;10.944;2023-11-21T05:26:30;6.80;99.90
34099;DHT22;20374;49.474;10.944;2023-11-21T05:28:57;6.80;99.90
34099;DHT22;20374;49.474;10.944;2023-11-21T05:31:23;6.80;99.90
34099;DHT22;20374;49.474;10.944;2023-11-21T05:33:52;6.80;99.90
34099;DHT22;20374;49.474;10.944;2023-11-21T05:36:18;6.80;99.90
34099;DHT22;20374;49.474;10.944;2023-11-21T05:38:44;6.80;99.90
34099;DHT22;20374;49.474;10.944;2023-11-21T05:41:11;6.70;99.90
34099;DHT22;20374;49.474;10.944;2023-11-21T05:43:39;6.80;99.90
34099;DHT22;20374;49.474;10.944;2023-11-21T05:46:06;6.90;99.90
34099;DHT22;20374;49.474;10.944;2023-11-21T05:48:33;6.90;99.90
34099;DHT22;20374;49.474;10.944;2023-11-21T05:50:59;6.90;99.90
34099;DHT22;20374;49.474;10.944;2023-11-21T05:53:27;6.90;99.90
34099;DHT22;20374;49.474;10.944;2023-11-21T05:55:53;6.90;99.90
34099;DHT22;20374;49.474;10.944;2023-11-21T05:58:19;6.90;99.90
34099;DHT22;20374;49.474;10.944;2023-11-21T06:00:45;6.90;99.90
34099;DHT22;20374;49.474;10.944;2023-11-21T06:03:11;6.90;99.90
34099;DHT22;20374;49.474;10.944;2023-11-21T06:05:38;6.90;99.90
34099;DHT22;20374;49.474;10.944;2023-11-21T06:08:04;6.90;99.90
34099;DHT22;20374;49.474;10.944;2023-11-21T06:10:32;6.90;99.90
34099;DHT22;20374;49.474;10.944;2023-11-21T06:13:04;6.70;99.90
34099;DHT22;20374;49.474;10.944;2023-11-21T06:15:30;6.80;99.90
34099;DHT22;20374;49.474;10.944;2023-11-21T06:18:02;6.90;99.90
34099;DHT22;20374;49.474;10.944;2023-11-21T06:20:28;6.90;99.90
34099;DHT22;20374;49.474;10.944;2023-11-21T06:22:54;6.90;99.90
34099;DHT22;20374;49.474;10.944;2023-11-21T06:25:21;6.80;99.90
34099;DHT22;20374;49.474;10.944;2023-11-21T06:27:48;6.90;99.90
34099;DHT22;20374;49.474;10.944;2023-11-21T06:30:29;7.00;99.90
34099;DHT22;20374;49.474;10.944;2023-11-21T06:32:55;6.90;99.90
34099;DHT22;20374;49.474;10.944;2023-11-21T06:35:22;6.90;99.90
34099;DHT22;20374;49.474;10.944;2023-11-21T06:40:40;7.00;99.90
34099;DHT22;20374;49.474;10.944;2023-11-21T06:43:07;6.90;99.90
34099;DHT22;20374;49.474;10.944;2023-11-21T06:45:42;6.90;99.90
34099;DHT22;20374;49.474;10.944;2023-11-21T06:48:09;6.90;99.90
34099;DHT22;20374;49.474;10.944;2023-11-21T06:50:36;6.90;99.90
34099;DHT22;20374;49.474;10.944;2023-11-21T06:53:02;6.90;99.90
34099;DHT22;20374;49.474;10.944;2023-11-21T06:55:29;6.90;99.90
34099;DHT22;20374;49.474;10.944;2023-11-21T06:57:56;6.90;99.90
34099;DHT22;20374;49.474;10.944;2023-11-21T07:00:40;7.00;99.90
34099;DHT22;20374;49.474;10.944;2023-11-21T07:03:15;7.00;99.90
34099;DHT22;20374;49.474;10.944;2023-11-21T07:05:41;7.00;99.90
34099;DHT22;20374;49.474;10.944;2023-11-21T07:08:07;7.00;99.90
34099;DHT22;20374;49.474;10.944;2023-11-21T07:13:22;7.00;99.90
34099;DHT22;20374;49.474;10.944;2023-11-21T07:15:51;7.10;99.90
34099;DHT22;20374;49.474;10.944;2023-11-21T07:18:18;7.10;99.90
34099;DHT22;20374;49.474;10.944;2023-11-21T07:20:44;7.10;99.90
34099;DHT22;20374;49.474;10.944;2023-11-21T07:23:10;7.20;99.90
34099;DHT22;20374;49.474;10.944;2023-11-21T07:25:37;7.10;99.90
34099;DHT22;20374;49.474;10.944;2023-11-21T07:28:03;7.20;99.90
34099;DHT22;20374;49.474;10.944;2023-11-21T07:30:31;7.20;99.90
34099;DHT22;20374;49.474;10.944;2023-11-21T07:32:58;7.20;99.90
34099;DHT22;20374;49.474;10.944;2023-11-21T07:35:24;7.20;99.90
34099;DHT22;20374;49.474;10.944;2023-11-21T07:37:59;7.20;99.90
34099;DHT22;20374;49.474;10.944;2023-11-21T07:40:25;7.20;99.90
34099;DHT22;20374;49.474;10.944;2023-11-21T07:42:53;7.20;99.90
34099;DHT22;20374;49.474;10.944;2023-11-21T07:45:24;7.20;99.90
34099;DHT22;20374;49.474;10.944;2023-11-21T07:47:54;7.20;99.90
34099;DHT22;20374;49.474;10.944;2023-11-21T07:50:22;7.40;99.90
34099;DHT22;20374;49.474;10.944;2023-11-21T07:52:49;7.30;99.90
34099;DHT22;20374;49.474;10.944;2023-11-21T07:55:24;7.30;99.90
34099;DHT22;20374;49.474;10.944;2023-11-21T07:57:50;7.30;99.90
34099;DHT22;20374;49.474;10.944;2023-11-21T08:00:30;7.30;99.90
34099;DHT22;20374;49.474;10.944;2023-11-21T08:03:06;7.40;99.90
34099;DHT22;20374;49.474;10.944;2023-11-21T08:05:38;7.40;99.90
34099;DHT22;20374;49.474;10.944;2023-11-21T08:08:23;7.40;99.90
34099;DHT22;20374;49.474;10.944;2023-11-21T08:10:51;7.50;99.90
34099;DHT22;20374;49.474;10.944;2023-11-21T08:13:30;7.50;99.90
34099;DHT22;20374;49.474;10.944;2023-11-21T08:15:57;7.60;99.90
34099;DHT22;20374;49.474;10.944;2023-11-21T08:18:28;7.60;99.90
34099;DHT22;20374;49.474;10.944;2023-11-21T08:20:55;7.60;99.90
34099;DHT22;20374;49.474;10.944;2023-11-21T08:23:29;7.70;99.90
34099;DHT22;20374;49.474;10.944;2023-11-21T08:25:55;7.70;99.90
34099;DHT22;20374;49.474;10.944;2023-11-21T08:28:21;7.60;99.90
34099;DHT22;20374;49.474;10.944;2023-11-21T08:30:55;7.60;99.90
34099;DHT22;20374;49.474;10.944;2023-11-21T08:33:24;7.80;99.90
34099;DHT22;20374;49.474;10.944;2023-11-21T08:35:50;7.80;99.90
34099;DHT22;20374;49.474;10.944;2023-11-21T08:38:16;7.80;99.90
34099;DHT22;20374;49.474;10.944;2023-11-21T08:40:42;8.00;99.90
34099;DHT22;20374;49.474;10.944;2023-11-21T08:43:14;7.80;99.90
34099;DHT22;20374;49.474;10.944;2023-11-21T08:45:42;7.80;99.90
34099;DHT22;20374;49.474;10.944;2023-11-21T08:48:08;7.80;99.90
34099;DHT22;20374;49.474;10.944;2023-11-21T08:50:34;8.00;99.90
34099;DHT22;20374;49.474;10.944;2023-11-21T08:53:00;7.90;99.90
34099;DHT22;20374;49.474;10.944;2023-11-21T08:55:26;8.00;99.90
34099;DHT22;20374;49.474;10.944;2023-11-21T08:57:53;8.10;99.90
34099;DHT22;20374;49.474;10.944;2023-11-21T09:00:19;8.20;99.90
34099;DHT22;20374;49.474;10.944;2023-11-21T09:02:45;8.30;99.90
34099;DHT22;20374;49.474;10.944;2023-11-21T09:05:12;8.40;99.90
34099;DHT22;20374;49.474;10.944;2023-11-21T09:07:40;8.40;99.90
34099;DHT22;20374;49.474;10.944;2023-11-21T09:10:12;8.40;99.90
34099;DHT22;20374;49.474;10.944;2023-11-21T09:12:38;8.50;99.90
34099;DHT22;20374;49.474;10.944;2023-11-21T09:15:05;8.60;99.90
34099;DHT22;20374;49.474;10.944;2023-11-21T09:17:35;8.70;99.90
34099;DHT22;20374;49.474;10.944;2023-11-21T09:20:02;8.70;99.90
34099;DHT22;20374;49.474;10.944;2023-11-21T09:22:31;8.70;99.90
34099;DHT22;20374;49.474;10.944;2023-11-21T09:24:57;8.70;99.90
34099;DHT22;20374;49.474;10.944;2023-11-21T09:27:24;8.70;99.90
34099;DHT22;20374;49.474;10.944;2023-11-21T09:29:51;8.70;99.90
34099;DHT22;20374;49.474;10.944;2023-11-21T09:32:18;8.80;99.90
34099;DHT22;20374;49.474;10.944;2023-11-21T09:34:45;8.80;99.90
34099;DHT22;20374;49.474;10.944;2023-11-21T09:37:11;8.80;99.90
34099;DHT22;20374;49.474;10.944;2023-11-21T09:39:36;8.90;99.90
34099;DHT22;20374;49.474;10.944;2023-11-21T09:44:47;8.90;99.90
34099;DHT22;20374;49.474;10.944;2023-11-21T09:47:15;8.80;99.90
34099;DHT22;20374;49.474;10.944;2023-11-21T09:49:47;8.90;99.90
34099;DHT22;20374;49.474;10.944;2023-11-21T09:52:24;8.90;99.90
34099;DHT22;20374;49.474;10.944;2023-11-21T09:54:52;8.90;99.90
34099;DHT22;20374;49.474;10.944;2023-11-21T09:57:24;8.90;99.90
34099;DHT22;20374;49.474;10.944;2023-11-21T09:59:54;8.90;99.90
34099;DHT22;20374;49.474;10.944;2023-11-21T10:02:27;9.00;99.90
34099;DHT22;20374;49.474;10.944;2023-11-21T10:04:55;9.10;99.90
34099;DHT22;20374;49.474;10.944;2023-11-21T10:07:23;9.20;99.90
34099;DHT22;20374;49.474;10.944;2023-11-21T10:09:51;9.30;99.90
34099;DHT22;20374;49.474;10.944;2023-11-21T10:12:17;9.40;99.90
34099;DHT22;20374;49.474;10.944;2023-11-21T10:14:48;9.40;99.90
34099;DHT22;20374;49.474;10.944;2023-11-21T10:17:15;9.50;99.90
34099;DHT22;20374;49.474;10.944;2023-11-21T10:19:46;9.60;99.90
34099;DHT22;20374;49.474;10.944;2023-11-21T10:22:16;9.70;99.90
34099;DHT22;20374;49.474;10.944;2023-11-21T10:24:43;9.70;99.90
34099;DHT22;20374;49.474;10.944;2023-11-21T10:27:09;9.60;99.90
34099;DHT22;20374;49.474;10.944;2023-11-21T10:29:35;9.60;99.90
34099;DHT22;20374;49.474;10.944;2023-11-21T10:32:04;9.40;99.90
34099;DHT22;20374;49.474;10.944;2023-11-21T10:34:31;9.50;99.90
34099;DHT22;20374;49.474;10.944;2023-11-21T10:36:57;9.50;99.90
34099;DHT22;20374;49.474;10.944;2023-11-21T10:39:25;9.40;99.90
34099;DHT22;20374;49.474;10.944;2023-11-21T10:41:56;9.40;99.90
34099;DHT22;20374;49.474;10.944;2023-11-21T10:44:22;9.40;99.90
34099;DHT22;20374;49.474;10.944;2023-11-21T10:46:53;9.50;99.90
34099;DHT22;20374;49.474;10.944;2023-11-21T10:49:25;9.50;99.90
34099;DHT22;20374;49.474;10.944;2023-11-21T10:51:52;9.70;99.90
34099;DHT22;20374;49.474;10.944;2023-11-21T10:54:20;10.00;99.90
34099;DHT22;20374;49.474;10.944;2023-11-21T10:56:49;10.30;99.90
34099;DHT22;20374;49.474;10.944;2023-11-21T10:59:17;10.50;99.90
34099;DHT22;20374;49.474;10.944;2023-11-21T11:01:46;10.80;99.90
34099;DHT22;20374;49.474;10.944;2023-11-21T11:04:18;10.80;99.90
34099;DHT22;20374;49.474;10.944;2023-11-21T11:06:54;10.90;99.90
34099;DHT22;20374;49.474;10.944;2023-11-21T11:09:20;10.90;99.90
34099;DHT22;20374;49.474;10.944;2023-11-21T11:11:46;10.70;99.90
34099;DHT22;20374;49.474;10.944;2023-11-21T11:14:13;10.60;99.90
34099;DHT22;20374;49.474;10.944;2023-11-21T11:16:40;10.40;99.90
34099;DHT22;20374;49.474;10.944;2023-11-21T11:19:07;10.30;99.90
34099;DHT22;20374;49.474;10.944;2023-11-21T11:21:50;10.20;99.90
34099;DHT22;20374;49.474;10.944;2023-11-21T11:26:52;9.90;99.90
34099;DHT22;20374;49.474;10.944;2023-11-21T11:29:38;9.80;99.90
34099;DHT22;20374;49.474;10.944;2023-11-21T11:35:12;9.70;99.90
34099;DHT22;20374;49.474;10.944;2023-11-21T11:37:43;9.70;99.90
34099;DHT22;20374;49.474;10.944;2023-11-21T11:40:11;9.60;99.90
34099;DHT22;20374;49.474;10.944;2023-11-21T11:42:37;9.60;99.90
34099;DHT22;20374;49.474;10.944;2023-11-21T11:45:18;9.50;99.90
34099;DHT22;20374;49.474;10.944;2023-11-21T11:47:47;9.50;99.90
34099;DHT22;20374;49.474;10.944;2023-11-21T11:50:13;9.60;99.90
34099;DHT22;20374;49.474;10.944;2023-11-21T11:52:49;9.60;99.90
34099;DHT22;20374;49.474;10.944;2023-11-21T11:55:17;9.50;99.90
34099;DHT22;20374;49.474;10.944;2023-11-21T11:57:47;9.60;99.90
34099;DHT22;20374;49.474;10.944;2023-11-21T12:03:00;9.60;99.90
34099;DHT22;20374;49.474;10.944;2023-11-21T12:05:30;9.50;99.90
34099;DHT22;20374;49.474;10.944;2023-11-21T12:08:01;9.60;99.90
34099;DHT22;20374;49.474;10.944;2023-11-21T12:10:28;9.60;99.90
34099;DHT22;20374;49.474;10.944;2023-11-21T12:12:59;9.70;99.90
34099;DHT22;20374;49.474;10.944;2023-11-21T12:15:25;9.80;99.90
34099;DHT22;20374;49.474;10.944;2023-11-21T12:17:52;9.80;99.90
34099;DHT22;20374;49.474;10.944;2023-11-21T12:20:20;9.80;99.90
34099;DHT22;20374;49.474;10.944;2023-11-21T12:22:51;9.80;99.90
34099;DHT22;20374;49.474;10.944;2023-11-21T12:25:22;9.80;99.90
34099;DHT22;20374;49.474;10.944;2023-11-21T12:27:52;9.80;99.90
34099;DHT22;20374;49.474;10.944;2023-11-21T12:30:23;9.80;99.90
34099;DHT22;20374;49.474;10.944;2023-11-21T12:32:52;9.80;99.90
34099;DHT22;20374;49.474;10.944;2023-11-21T12:35:21;9.80;99.90
34099;DHT22;20374;49.474;10.944;2023-11-21T12:37:48;9.80;99.90
34099;DHT22;20374;49.474;10.944;2023-11-21T12:40:15;9.90;99.90
34099;DHT22;20374;49.474;10.944;2023-11-21T12:42:42;9.90;99.90
34099;DHT22;20374;49.474;10.944;2023-11-21T12:45:19;9.90;99.90
34099;DHT22;20374;49.474;10.944;2023-11-21T12:50:26;9.90;99.90
34099;DHT22;20374;49.474;10.944;2023-11-21T12:53:08;9.90;99.90
34099;DHT22;20374;49.474;10.944;2023-11-21T12:55:35;9.80;99.90
34099;DHT22;20374;49.474;10.944;2023-11-21T12:58:07;9.90;99.90
34099;DHT22;20374;49.474;10.944;2023-11-21T13:00:44;9.90;99.90
34099;DHT22;20374;49.474;10.944;2023-11-21T13:03:12;9.90;99.90
34099;DHT22;20374;49.474;10.944;2023-11-21T13:05:43;9.90;99.90
34099;DHT22;20374;49.474;10.944;2023-11-21T13:08:13;9.80;99.90
34099;DHT22;20374;49.474;10.944;2023-11-21T13:10:44;9.80;99.90
34099;DHT22;20374;49.474;10.944;2023-11-21T13:13:13;9.70;99.90
34099;DHT22;20374;49.474;10.944;2023-11-21T13:15:51;9.70;99.90
34099;DHT22;20374;49.474;10.944;2023-11-21T13:18:18;9.70;99.90
34099;DHT22;20374;49.474;10.944;2023-11-21T13:20:44;9.60;99.90
34099;DHT22;20374;49.474;10.944;2023-11-21T13:23:12;9.70;99.90
34099;DHT22;20374;49.474;10.944;2023-11-21T13:25:39;9.70;99.90
34099;DHT22;20374;49.474;10.944;2023-11-21T13:28:07;9.80;99.90
34099;DHT22;20374;49.474;10.944;2023-11-21T13:30:33;9.80;99.90
34099;DHT22;20374;49.474;10.944;2023-11-21T13:33:03;9.80;99.90
34099;DHT22;20374;49.474;10.944;2023-11-21T13:35:38;9.80;99.90
34099;DHT22;20374;49.474;10.944;2023-11-21T13:38:13;9.70;99.90
34099;DHT22;20374;49.474;10.944;2023-11-21T13:40:40;9.50;99.90
34099;DHT22;20374;49.474;10.944;2023-11-21T13:43:13;9.40;99.90
34099;DHT22;20374;49.474;10.944;2023-11-21T13:45:43;9.40;99.90
34099;DHT22;20374;49.474;10.944;2023-11-21T13:48:11;9.30;99.90
34099;DHT22;20374;49.474;10.944;2023-11-21T13:50:48;9.30;99.90
34099;DHT22;20374;49.474;10.944;2023-11-21T13:53:23;9.40;99.90
34099;DHT22;20374;49.474;10.944;2023-11-21T13:55:54;9.40;99.90
34099;DHT22;20374;49.474;10.944;2023-11-21T13:58:23;9.40;99.90
34099;DHT22;20374;49.474;10.944;2023-11-21T14:01:08;9.40;99.90
34099;DHT22;20374;49.474;10.944;2023-11-21T14:03:50;9.50;99.90
34099;DHT22;20374;49.474;10.944;2023-11-21T14:06:22;9.60;99.90
34099;DHT22;20374;49.474;10.944;2023-11-21T14:08:56;10.00;99.90
34099;DHT22;20374;49.474;10.944;2023-11-21T14:11:23;11.10;99.90
34099;DHT22;20374;49.474;10.944;2023-11-21T14:13:49;12.10;99.90
34099;DHT22;20374;49.474;10.944;2023-11-21T14:16:15;13.00;99.90
34099;DHT22;20374;49.474;10.944;2023-11-21T14:18:43;13.60;99.90
34099;DHT22;20374;49.474;10.944;2023-11-21T14:21:24;13.80;99.90
34099;DHT22;20374;49.474;10.944;2023-11-21T14:23:50;13.50;99.90
34099;DHT22;20374;49.474;10.944;2023-11-21T14:26:16;12.90;99.90
34099;DHT22;20374;49.474;10.944;2023-11-21T14:28:42;12.30;99.90
34099;DHT22;20374;49.474;10.944;2023-11-21T14:31:08;11.80;99.90
34099;DHT22;20374;49.474;10.944;2023-11-21T14:33:39;11.30;99.90
34099;DHT22;20374;49.474;10.944;2023-11-21T14:36:06;11.00;99.90
34099;DHT22;20374;49.474;10.944;2023-11-21T14:38:38;10.80;99.90
34099;DHT22;20374;49.474;10.944;2023-11-21T14:41:05;10.60;99.90
34099;DHT22;20374;49.474;10.944;2023-11-21T14:43:36;10.50;99.90
34099;DHT22;20374;49.474;10.944;2023-11-21T14:46:04;10.40;99.90
34099;DHT22;20374;49.474;10.944;2023-11-21T14:48:34;10.30;99.90
34099;DHT22;20374;49.474;10.944;2023-11-21T14:51:12;10.30;99.90
34099;DHT22;20374;49.474;10.944;2023-11-21T14:53:38;10.20;99.90
34099;DHT22;20374;49.474;10.944;2023-11-21T14:56:24;10.10;99.90
34099;DHT22;20374;49.474;10.944;2023-11-21T14:58:57;10.00;99.90
34099;DHT22;20374;49.474;10.944;2023-11-21T15:01:24;9.80;99.90
34099;DHT22;20374;49.474;10.944;2023-11-21T15:04:13;9.70;99.90
34099;DHT22;20374;49.474;10.944;2023-11-21T15:06:54;9.60;99.90
34099;DHT22;20374;49.474;10.944;2023-11-21T15:09:25;9.40;99.90
34099;DHT22;20374;49.474;10.944;2023-11-21T15:12:00;9.30;99.90
34099;DHT22;20374;49.474;10.944;2023-11-21T15:14:43;9.10;99.90
34099;DHT22;20374;49.474;10.944;2023-11-21T15:17:12;9.00;99.90
34099;DHT22;20374;49.474;10.944;2023-11-21T15:19:44;8.80;99.90
34099;DHT22;20374;49.474;10.944;2023-11-21T15:22:10;8.70;99.90
34099;DHT22;20374;49.474;10.944;2023-11-21T15:24:41;8.70;99.90
34099;DHT22;20374;49.474;10.944;2023-11-21T15:27:09;8.60;99.90
34099;DHT22;20374;49.474;10.944;2023-11-21T15:29:35;8.60;99.90
34099;DHT22;20374;49.474;10.944;2023-11-21T15:32:01;8.50;99.90
34099;DHT22;20374;49.474;10.944;2023-11-21T15:34:27;8.50;99.90
34099;DHT22;20374;49.474;10.944;2023-11-21T15:36:54;8.40;99.90
34099;DHT22;20374;49.474;10.944;2023-11-21T15:39:21;8.40;99.90
34099;DHT22;20374;49.474;10.944;2023-11-21T15:41:54;8.40;99.90
34099;DHT22;20374;49.474;10.944;2023-11-21T15:44:20;8.40;99.90
34099;DHT22;20374;49.474;10.944;2023-11-21T15:46:46;8.30;99.90
34099;DHT22;20374;49.474;10.944;2023-11-21T15:49:13;8.30;99.90
34099;DHT22;20374;49.474;10.944;2023-11-21T15:51:45;8.30;99.90
34099;DHT22;20374;49.474;10.944;2023-11-21T15:54:13;8.20;99.90
34099;DHT22;20374;49.474;10.944;2023-11-21T15:56:41;8.20;99.90
34099;DHT22;20374;49.474;10.944;2023-11-21T15:59:10;8.20;99.90
34099;DHT22;20374;49.474;10.944;2023-11-21T16:01:36;8.10;99.90
34099;DHT22;20374;49.474;10.944;2023-11-21T16:04:07;8.10;99.90
34099;DHT22;20374;49.474;10.944;2023-11-21T16:06:33;8.10;99.90
34099;DHT22;20374;49.474;10.944;2023-11-21T16:09:11;8.20;99.90
34099;DHT22;20374;49.474;10.944;2023-11-21T16:11:57;8.00;99.90
34099;DHT22;20374;49.474;10.944;2023-11-21T16:14:31;8.00;99.90
34099;DHT22;20374;49.474;10.944;2023-11-21T16:17:15;8.00;99.90
34099;DHT22;20374;49.474;10.944;2023-11-21T16:19:43;8.10;99.90
34099;DHT22;20374;49.474;10.944;2023-11-21T16:22:10;8.10;99.90
34099;DHT22;20374;49.474;10.944;2023-11-21T16:24:36;8.10;99.90
34099;DHT22;20374;49.474;10.944;2023-11-21T16:27:03;8.20;99.90
34099;DHT22;20374;49.474;10.944;2023-11-21T16:29:30;8.10;99.90
34099;DHT22;20374;49.474;10.944;2023-11-21T16:31:59;8.10;99.90
34099;DHT22;20374;49.474;10.944;2023-11-21T16:34:26;8.10;99.90
34099;DHT22;20374;49.474;10.944;2023-11-21T16:36:52;8.20;99.90
34099;DHT22;20374;49.474;10.944;2023-11-21T16:39:21;8.20;99.90
34099;DHT22;20374;49.474;10.944;2023-11-21T16:41:50;8.20;99.90
34099;DHT22;20374;49.474;10.944;2023-11-21T16:44:21;8.20;99.90